sensor_id;sensor_type;location;lat;lon;timestamp;temperature;humidity
26051;DHT22;13825;53.496;10.020;2023-02-05T02:04:28;-2.00;1.00
26051;DHT22;13825;53.496;10.020;2023-02-05T02:14:15;-2.00;1.00
26051;DHT22;13825;53.496;10.020;2023-02-05T02:17:33;-1.90;1.00
26051;DHT22;13825;53.496;10.020;2023-02-05T02:28:16;-1.80;1.00
26051;DHT22;13825;53.496;10.020;2023-02-05T02:38:33;-1.70;1.00
26051;DHT22;13825;53.496;10.020;2023-02-05T03:00:46;-1.40;1.00
26051;DHT22;13825;53.496;10.020;2023-02-05T03:04:02;-1.40;1.00
26051;DHT22;13825;53.496;10.020;2023-02-05T03:10:49;-1.40;99.90
26051;DHT22;13825;53.496;10.020;2023-02-05T03:13:34;-1.30;99.90
26051;DHT22;13825;53.496;10.020;2023-02-05T03:39:19;-1.40;99.90
26051;DHT22;13825;53.496;10.020;2023-02-05T03:42:35;-1.50;99.90
26051;DHT22;13825;53.496;10.020;2023-02-05T03:59:02;-1.60;99.90
26051;DHT22;13825;53.496;10.020;2023-02-05T04:36:38;-1.30;99.90
26051;DHT22;13825;53.496;10.020;2023-02-05T04:39:33;-1.30;99.90
26051;DHT22;13825;53.496;10.020;2023-02-05T04:42:54;-1.40;99.90
26051;DHT22;13825;53.496;10.020;2023-02-05T04:46:09;-1.30;99.90
26051;DHT22;13825;53.496;10.020;2023-02-05T04:56:13;-1.20;99.90
26051;DHT22;13825;53.496;10.020;2023-02-05T04:59:33;-1.20;92.20
26051;DHT22;13825;53.496;10.020;2023-02-05T05:12:44;-1.20;74.10
26051;DHT22;13825;53.496;10.020;2023-02-05T05:15:44;-1.20;86.10
26051;DHT22;13825;53.496;10.020;2023-02-05T05:25:21;-1.10;25.90
26051;DHT22;13825;53.496;10.020;2023-02-05T05:31:43;-1.10;1.00
26051;DHT22;13825;53.496;10.020;2023-02-05T05:42:27;-1.10;1.00
26051;DHT22;13825;53.496;10.020;2023-02-05T05:44:20;-1.10;1.00
26051;DHT22;13825;53.496;10.020;2023-02-05T05:47:12;-1.10;2.50
26051;DHT22;13825;53.496;10.020;2023-02-05T05:52:45;-1.10;1.00
26051;DHT22;13825;53.496;10.020;2023-02-05T05:56:16;-1.00;1.00
26051;DHT22;13825;53.496;10.020;2023-02-05T05:58:49;-1.00;1.00
26051;DHT22;13825;53.496;10.020;2023-02-05T06:11:41;-1.00;1.00
26051;DHT22;13825;53.496;10.020;2023-02-05T07:05:10;-1.00;1.00
26051;DHT22;13825;53.496;10.020;2023-02-05T07:08:04;-1.00;1.00
26051;DHT22;13825;53.496;10.020;2023-02-05T07:29:14;-1.10;1.00
26051;DHT22;13825;53.496;10.020;2023-02-05T07:38:24;-1.00;1.00
26051;DHT22;13825;53.496;10.020;2023-02-05T07:41:32;-0.90;1.00
26051;DHT22;13825;53.496;10.020;2023-02-05T07:45:14;-1.00;1.00
26051;DHT22;13825;53.496;10.020;2023-02-05T07:48:14;-0.90;1.00
26051;DHT22;13825;53.496;10.020;2023-02-05T07:51:35;-0.80;1.00
26051;DHT22;13825;53.496;10.020;2023-02-05T08:04:34;-0.80;1.00
26051;DHT22;13825;53.496;10.020;2023-02-05T08:07:37;-0.80;1.00
26051;DHT22;13825;53.496;10.020;2023-02-05T08:13:47;-0.70;1.00
26051;DHT22;13825;53.496;10.020;2023-02-05T08:16:24;-0.70;1.00
26051;DHT22;13825;53.496;10.020;2023-02-05T08:19:14;-0.70;1.00
26051;DHT22;13825;53.496;10.020;2023-02-05T08:22:04;-0.60;1.00
26051;DHT22;13825;53.496;10.020;2023-02-05T08:25:18;-0.50;1.00
26051;DHT22;13825;53.496;10.020;2023-02-05T08:28:07;-0.50;1.00
26051;DHT22;13825;53.496;10.020;2023-02-05T08:30:37;-0.50;1.00
26051;DHT22;13825;53.496;10.020;2023-02-05T08:40:19;-0.30;1.00
26051;DHT22;13825;53.496;10.020;2023-02-05T08:44:40;-0.30;99.90
26051;DHT22;13825;53.496;10.020;2023-02-05T08:49:38;0.00;99.90
26051;DHT22;13825;53.496;10.020;2023-02-05T08:52:28;0.00;99.90
26051;DHT22;13825;53.496;10.020;2023-02-05T08:57:57;0.10;99.90
26051;DHT22;13825;53.496;10.020;2023-02-05T09:00:31;0.20;99.90
26051;DHT22;13825;53.496;10.020;2023-02-05T09:03:23;0.20;99.90
26051;DHT22;13825;53.496;10.020;2023-02-05T09:06:20;0.20;99.90
26051;DHT22;13825;53.496;10.020;2023-02-05T09:09:16;0.30;99.90
26051;DHT22;13825;53.496;10.020;2023-02-05T09:12:06;0.40;99.90
26051;DHT22;13825;53.496;10.020;2023-02-05T09:15:00;0.40;99.90
26051;DHT22;13825;53.496;10.020;2023-02-05T09:17:42;0.50;99.90
26051;DHT22;13825;53.496;10.020;2023-02-05T09:20:23;0.60;99.90
26051;DHT22;13825;53.496;10.020;2023-02-05T09:22:55;0.50;99.90
26051;DHT22;13825;53.496;10.020;2023-02-05T09:29:31;0.50;93.70
26051;DHT22;13825;53.496;10.020;2023-02-05T09:38:39;0.70;90.20
26051;DHT22;13825;53.496;10.020;2023-02-05T09:41:52;0.70;17.40
26051;DHT22;13825;53.496;10.020;2023-02-05T09:45:02;0.70;16.40
26051;DHT22;13825;53.496;10.020;2023-02-05T09:51:24;0.90;1.00
26051;DHT22;13825;53.496;10.020;2023-02-05T09:54:28;0.90;1.00
26051;DHT22;13825;53.496;10.020;2023-02-05T09:57:06;1.00;1.00
26051;DHT22;13825;53.496;10.020;2023-02-05T09:59:44;1.10;1.00
26051;DHT22;13825;53.496;10.020;2023-02-05T10:05:50;1.10;1.00
26051;DHT22;13825;53.496;10.020;2023-02-05T10:08:51;1.10;1.00
26051;DHT22;13825;53.496;10.020;2023-02-05T10:30:20;1.50;1.00
26051;DHT22;13825;53.496;10.020;2023-02-05T10:36:36;1.60;1.00
26051;DHT22;13825;53.496;10.020;2023-02-05T10:39:45;1.60;1.00
26051;DHT22;13825;53.496;10.020;2023-02-05T10:42:32;1.60;1.00
26051;DHT22;13825;53.496;10.020;2023-02-05T10:52:39;1.90;1.00
26051;DHT22;13825;53.496;10.020;2023-02-05T11:14:54;2.10;99.90
26051;DHT22;13825;53.496;10.020;2023-02-05T11:18:20;1.90;99.90
26051;DHT22;13825;53.496;10.020;2023-02-05T11:36:13;2.00;99.90
26051;DHT22;13825;53.496;10.020;2023-02-05T11:42:41;2.20;99.90
26051;DHT22;13825;53.496;10.020;2023-02-05T11:46:02;2.30;99.90
26051;DHT22;13825;53.496;10.020;2023-02-05T11:58:59;2.50;99.90
26051;DHT22;13825;53.496;10.020;2023-02-05T12:05:24;2.40;99.90
26051;DHT22;13825;53.496;10.020;2023-02-05T12:08:23;2.50;99.90
26051;DHT22;13825;53.496;10.020;2023-02-05T12:11:27;2.60;99.90
26051;DHT22;13825;53.496;10.020;2023-02-05T12:14:43;2.70;99.90
26051;DHT22;13825;53.496;10.020;2023-02-05T12:17:39;2.70;99.90
26051;DHT22;13825;53.496;10.020;2023-02-05T12:21:08;2.80;99.90
26051;DHT22;13825;53.496;10.020;2023-02-05T12:24:14;2.80;99.90
26051;DHT22;13825;53.496;10.020;2023-02-05T12:27:29;3.10;99.90
26051;DHT22;13825;53.496;10.020;2023-02-05T12:30:36;3.00;99.90
26051;DHT22;13825;53.496;10.020;2023-02-05T12:37:12;3.10;99.90
26051;DHT22;13825;53.496;10.020;2023-02-05T12:40:38;3.00;99.90
26051;DHT22;13825;53.496;10.020;2023-02-05T12:47:01;3.00;99.90
26051;DHT22;13825;53.496;10.020;2023-02-05T12:50:07;2.90;99.90
26051;DHT22;13825;53.496;10.020;2023-02-05T12:53:22;2.70;99.90
26051;DHT22;13825;53.496;10.020;2023-02-05T12:56:30;2.80;99.90
26051;DHT22;13825;53.496;10.020;2023-02-05T12:59:44;3.00;99.90
26051;DHT22;13825;53.496;10.020;2023-02-05T13:02:51;3.10;99.90
26051;DHT22;13825;53.496;10.020;2023-02-05T13:09:07;3.00;99.90
26051;DHT22;13825;53.496;10.020;2023-02-05T13:12:30;2.90;99.90
26051;DHT22;13825;53.496;10.020;2023-02-05T13:15:21;2.90;99.90
26051;DHT22;13825;53.496;10.020;2023-02-05T13:18:22;2.80;99.90
26051;DHT22;13825;53.496;10.020;2023-02-05T13:24:29;2.80;99.90
26051;DHT22;13825;53.496;10.020;2023-02-05T13:27:31;2.80;99.90
26051;DHT22;13825;53.496;10.020;2023-02-05T13:30:35;2.70;99.90
26051;DHT22;13825;53.496;10.020;2023-02-05T13:39:59;3.10;99.90
26051;DHT22;13825;53.496;10.020;2023-02-05T13:46:29;3.10;99.90
26051;DHT22;13825;53.496;10.020;2023-02-05T13:58:36;3.20;99.90
26051;DHT22;13825;53.496;10.020;2023-02-05T14:01:21;3.20;99.90
26051;DHT22;13825;53.496;10.020;2023-02-05T14:04:01;3.20;99.90
26051;DHT22;13825;53.496;10.020;2023-02-05T14:06:57;3.10;99.90
26051;DHT22;13825;53.496;10.020;2023-02-05T14:09:46;3.00;99.90
26051;DHT22;13825;53.496;10.020;2023-02-05T14:12:37;3.00;99.90
26051;DHT22;13825;53.496;10.020;2023-02-05T14:22:31;2.70;99.90
26051;DHT22;13825;53.496;10.020;2023-02-05T14:34:58;2.80;99.90
26051;DHT22;13825;53.496;10.020;2023-02-05T14:37:52;2.70;99.90
26051;DHT22;13825;53.496;10.020;2023-02-05T14:44:18;2.70;99.90
26051;DHT22;13825;53.496;10.020;2023-02-05T14:47:37;2.60;99.90
26051;DHT22;13825;53.496;10.020;2023-02-05T14:50:25;2.70;99.90
26051;DHT22;13825;53.496;10.020;2023-02-05T14:53:20;2.70;99.90
26051;DHT22;13825;53.496;10.020;2023-02-05T14:56:28;2.60;99.90
26051;DHT22;13825;53.496;10.020;2023-02-05T15:07:21;2.50;99.90
26051;DHT22;13825;53.496;10.020;2023-02-05T15:09:36;2.50;99.90
26051;DHT22;13825;53.496;10.020;2023-02-05T15:16:06;2.50;99.90
26051;DHT22;13825;53.496;10.020;2023-02-05T15:35:21;2.30;99.90
26051;DHT22;13825;53.496;10.020;2023-02-05T15:38:14;2.20;99.90
26051;DHT22;13825;53.496;10.020;2023-02-05T15:44:00;2.30;99.90
26051;DHT22;13825;53.496;10.020;2023-02-05T15:47:03;2.20;99.90
26051;DHT22;13825;53.496;10.020;2023-02-05T15:49:49;2.20;1.00
26051;DHT22;13825;53.496;10.020;2023-02-05T15:52:52;2.10;1.00
26051;DHT22;13825;53.496;10.020;2023-02-05T15:59:16;2.10;99.90
26051;DHT22;13825;53.496;10.020;2023-02-05T16:02:20;2.10;99.90
26051;DHT22;13825;53.496;10.020;2023-02-05T16:05:16;2.10;1.00
26051;DHT22;13825;53.496;10.020;2023-02-05T16:08:15;2.00;1.00
26051;DHT22;13825;53.496;10.020;2023-02-05T16:19:31;2.00;1.00
26051;DHT22;13825;53.496;10.020;2023-02-05T16:22:43;2.00;1.00
26051;DHT22;13825;53.496;10.020;2023-02-05T16:28:46;2.00;1.00
26051;DHT22;13825;53.496;10.020;2023-02-05T16:31:49;2.00;1.00
26051;DHT22;13825;53.496;10.020;2023-02-05T16:38:09;1.90;1.00
26051;DHT22;13825;53.496;10.020;2023-02-05T16:41:00;2.00;1.00
26051;DHT22;13825;53.496;10.020;2023-02-05T16:43:47;1.90;1.00
26051;DHT22;13825;53.496;10.020;2023-02-05T16:46:34;2.00;1.00
26051;DHT22;13825;53.496;10.020;2023-02-05T17:02:36;1.90;1.00
26051;DHT22;13825;53.496;10.020;2023-02-05T17:05:41;2.00;1.00
26051;DHT22;13825;53.496;10.020;2023-02-05T17:08:47;2.10;1.00
26051;DHT22;13825;53.496;10.020;2023-02-05T17:15:29;2.10;1.00
26051;DHT22;13825;53.496;10.020;2023-02-05T17:18:22;2.10;1.00
26051;DHT22;13825;53.496;10.020;2023-02-05T17:24:42;2.10;99.90
26051;DHT22;13825;53.496;10.020;2023-02-05T17:27:48;2.10;99.90
26051;DHT22;13825;53.496;10.020;2023-02-05T17:30:57;2.10;99.90
26051;DHT22;13825;53.496;10.020;2023-02-05T17:34:19;2.10;99.90
26051;DHT22;13825;53.496;10.020;2023-02-05T17:37:24;2.10;99.90
26051;DHT22;13825;53.496;10.020;2023-02-05T17:40:12;2.20;99.90
26051;DHT22;13825;53.496;10.020;2023-02-05T20:13:04;1.80;1.00
26051;DHT22;13825;53.496;10.020;2023-02-05T20:15:49;1.80;99.90
26051;DHT22;13825;53.496;10.020;2023-02-05T20:18:52;1.80;99.90
26051;DHT22;13825;53.496;10.020;2023-02-05T20:21:48;1.70;1.00
26051;DHT22;13825;53.496;10.020;2023-02-05T20:24:43;1.70;99.90
26051;DHT22;13825;53.496;10.020;2023-02-05T20:27:26;1.70;99.90
26051;DHT22;13825;53.496;10.020;2023-02-05T20:30:25;1.70;99.90
26051;DHT22;13825;53.496;10.020;2023-02-05T20:33:39;1.70;1.00
26051;DHT22;13825;53.496;10.020;2023-02-05T20:36:38;1.70;1.00
26051;DHT22;13825;53.496;10.020;2023-02-05T20:39:49;1.60;1.00
26051;DHT22;13825;53.496;10.020;2023-02-05T20:46:00;1.70;1.00
26051;DHT22;13825;53.496;10.020;2023-02-05T20:48:47;1.70;99.90
26051;DHT22;13825;53.496;10.020;2023-02-05T20:51:21;1.70;99.90
26051;DHT22;13825;53.496;10.020;2023-02-05T20:54:02;1.70;99.90
26051;DHT22;13825;53.496;10.020;2023-02-05T20:56:48;1.80;99.90
26051;DHT22;13825;53.496;10.020;2023-02-05T20:59:44;1.70;99.90
26051;DHT22;13825;53.496;10.020;2023-02-05T21:02:35;1.70;99.90
26051;DHT22;13825;53.496;10.020;2023-02-05T21:05:11;1.70;99.90
26051;DHT22;13825;53.496;10.020;2023-02-05T21:07:55;1.70;99.90
26051;DHT22;13825;53.496;10.020;2023-02-05T21:10:37;1.70;1.00
26051;DHT22;13825;53.496;10.020;2023-02-05T21:13:30;1.60;1.00
26051;DHT22;13825;53.496;10.020;2023-02-05T21:19:41;1.70;99.90
26051;DHT22;13825;53.496;10.020;2023-02-05T21:22:31;1.60;99.90
26051;DHT22;13825;53.496;10.020;2023-02-05T21:25:17;1.60;99.90
26051;DHT22;13825;53.496;10.020;2023-02-05T21:27:55;1.60;99.90
26051;DHT22;13825;53.496;10.020;2023-02-05T21:30:46;1.60;1.00
26051;DHT22;13825;53.496;10.020;2023-02-05T21:33:51;1.40;1.00
26051;DHT22;13825;53.496;10.020;2023-02-05T21:36:39;1.40;1.00
26051;DHT22;13825;53.496;10.020;2023-02-05T21:39:24;1.30;1.00
26051;DHT22;13825;53.496;10.020;2023-02-05T21:42:17;1.20;1.00
26051;DHT22;13825;53.496;10.020;2023-02-05T21:44:52;1.10;99.90
26051;DHT22;13825;53.496;10.020;2023-02-05T21:47:51;0.90;1.00
26051;DHT22;13825;53.496;10.020;2023-02-05T21:50:21;0.80;99.90
26051;DHT22;13825;53.496;10.020;2023-02-05T21:53:02;0.70;99.90
26051;DHT22;13825;53.496;10.020;2023-02-05T22:02:31;0.30;93.80
26051;DHT22;13825;53.496;10.020;2023-02-05T22:08:46;0.00;1.00
26051;DHT22;13825;53.496;10.020;2023-02-05T22:11:36;0.00;1.00
26051;DHT22;13825;53.496;10.020;2023-02-05T22:14:10;0.00;99.90
26051;DHT22;13825;53.496;10.020;2023-02-05T22:17:20;0.10;1.00
26051;DHT22;13825;53.496;10.020;2023-02-05T22:20:12;0.10;1.00
26051;DHT22;13825;53.496;10.020;2023-02-05T22:22:54;0.10;1.00
26051;DHT22;13825;53.496;10.020;2023-02-05T22:25:47;0.10;1.00
26051;DHT22;13825;53.496;10.020;2023-02-05T22:28:31;0.20;1.00
26051;DHT22;13825;53.496;10.020;2023-02-05T22:31:27;0.10;1.00
26051;DHT22;13825;53.496;10.020;2023-02-05T22:34:32;0.00;1.00
26051;DHT22;13825;53.496;10.020;2023-02-05T22:37:41;0.00;1.00
26051;DHT22;13825;53.496;10.020;2023-02-05T22:40:32;0.20;99.90
26051;DHT22;13825;53.496;10.020;2023-02-05T22:43:31;0.10;99.90
26051;DHT22;13825;53.496;10.020;2023-02-05T22:46:09;0.00;99.90
26051;DHT22;13825;53.496;10.020;2023-02-05T22:49:01;0.00;99.90
26051;DHT22;13825;53.496;10.020;2023-02-05T22:51:50;0.00;99.90
26051;DHT22;13825;53.496;10.020;2023-02-05T22:54:24;0.10;99.90
26051;DHT22;13825;53.496;10.020;2023-02-05T23:00:20;0.10;99.90
26051;DHT22;13825;53.496;10.020;2023-02-05T23:03:25;0.10;99.90
26051;DHT22;13825;53.496;10.020;2023-02-05T23:06:16;0.10;99.90
26051;DHT22;13825;53.496;10.020;2023-02-05T23:12:14;0.10;99.90
26051;DHT22;13825;53.496;10.020;2023-02-05T23:15:05;0.10;99.90
26051;DHT22;13825;53.496;10.020;2023-02-05T23:18:02;0.10;99.90
26051;DHT22;13825;53.496;10.020;2023-02-05T23:21:13;0.00;99.90
26051;DHT22;13825;53.496;10.020;2023-02-05T23:23:54;0.00;99.90
26051;DHT22;13825;53.496;10.020;2023-02-05T23:26:31;0.00;99.90
26051;DHT22;13825;53.496;10.020;2023-02-05T23:38:30;-0.20;99.90
26051;DHT22;13825;53.496;10.020;2023-02-05T23:41:25;-0.20;99.90
26051;DHT22;13825;53.496;10.020;2023-02-05T23:44:57;-0.20;99.90
26051;DHT22;13825;53.496;10.020;2023-02-05T23:47:44;-0.30;99.90
26051;DHT22;13825;53.496;10.020;2023-02-05T23:54:14;-0.20;99.90
26051;DHT22;13825;53.496;10.020;2023-02-05T23:57:01;-0.30;99.90
26051;DHT22;13825;53.496;10.020;2023-02-05T23:59:51;-0.20;99.90
